sensor_id;sensor_type;location;lat;lon;timestamp;P1;durP1;ratioP1;P2;durP2;ratioP2
57085;SDS011;42964;42.910;23.792;2023-12-20T00:00:46;187.85;;;106.90;;
57085;SDS011;42964;42.910;23.792;2023-12-20T00:05:45;173.43;;;100.38;;
57085;SDS011;42964;42.910;23.792;2023-12-20T00:10:44;170.23;;;96.38;;
57085;SDS011;42964;42.910;23.792;2023-12-20T00:15:43;188.80;;;104.45;;
57085;SDS011;42964;42.910;23.792;2023-12-20T00:20:42;197.70;;;109.75;;
57085;SDS011;42964;42.910;23.792;2023-12-20T00:25:41;223.85;;;122.05;;
57085;SDS011;42964;42.910;23.792;2023-12-20T00:30:40;213.57;;;116.60;;
57085;SDS011;42964;42.910;23.792;2023-12-20T00:35:39;230.48;;;126.28;;
57085;SDS011;42964;42.910;23.792;2023-12-20T00:45:37;241.70;;;133.23;;
57085;SDS011;42964;42.910;23.792;2023-12-20T00:50:36;270.55;;;128.57;;
57085;SDS011;42964;42.910;23.792;2023-12-20T00:55:35;174.77;;;93.63;;
57085;SDS011;42964;42.910;23.792;2023-12-20T01:00:34;153.05;;;80.07;;
57085;SDS011;42964;42.910;23.792;2023-12-20T01:05:33;151.50;;;80.05;;
57085;SDS011;42964;42.910;23.792;2023-12-20T01:10:32;139.70;;;75.57;;
57085;SDS011;42964;42.910;23.792;2023-12-20T01:15:31;130.45;;;68.80;;
57085;SDS011;42964;42.910;23.792;2023-12-20T01:20:29;121.43;;;68.38;;
57085;SDS011;42964;42.910;23.792;2023-12-20T01:25:28;151.77;;;80.30;;
57085;SDS011;42964;42.910;23.792;2023-12-20T01:30:27;132.13;;;69.70;;
57085;SDS011;42964;42.910;23.792;2023-12-20T01:35:26;124.00;;;70.07;;
57085;SDS011;42964;42.910;23.792;2023-12-20T01:45:24;146.48;;;86.53;;
57085;SDS011;42964;42.910;23.792;2023-12-20T01:50:23;165.35;;;95.47;;
57085;SDS011;42964;42.910;23.792;2023-12-20T01:55:22;153.40;;;87.13;;
57085;SDS011;42964;42.910;23.792;2023-12-20T02:00:21;146.57;;;81.53;;
57085;SDS011;42964;42.910;23.792;2023-12-20T02:05:22;130.85;;;76.25;;
57085;SDS011;42964;42.910;23.792;2023-12-20T02:15:20;140.05;;;75.22;;
57085;SDS011;42964;42.910;23.792;2023-12-20T02:20:19;142.40;;;72.40;;
57085;SDS011;42964;42.910;23.792;2023-12-20T02:25:18;143.65;;;72.65;;
57085;SDS011;42964;42.910;23.792;2023-12-20T02:30:17;165.57;;;75.93;;
57085;SDS011;42964;42.910;23.792;2023-12-20T02:35:16;130.80;;;65.15;;
57085;SDS011;42964;42.910;23.792;2023-12-20T02:40:15;156.20;;;71.88;;
57085;SDS011;42964;42.910;23.792;2023-12-20T02:45:14;155.57;;;77.43;;
57085;SDS011;42964;42.910;23.792;2023-12-20T02:55:12;101.07;;;51.30;;
57085;SDS011;42964;42.910;23.792;2023-12-20T03:00:11;112.50;;;48.05;;
57085;SDS011;42964;42.910;23.792;2023-12-20T03:05:10;95.43;;;47.55;;
57085;SDS011;42964;42.910;23.792;2023-12-20T03:10:09;105.38;;;52.05;;
57085;SDS011;42964;42.910;23.792;2023-12-20T03:20:07;100.78;;;54.03;;
57085;SDS011;42964;42.910;23.792;2023-12-20T03:25:07;100.57;;;52.10;;
57085;SDS011;42964;42.910;23.792;2023-12-20T03:30:06;93.85;;;48.67;;
57085;SDS011;42964;42.910;23.792;2023-12-20T03:35:05;135.18;;;65.68;;
57085;SDS011;42964;42.910;23.792;2023-12-20T03:45:04;123.05;;;60.50;;
57085;SDS011;42964;42.910;23.792;2023-12-20T03:50:03;130.45;;;63.22;;
57085;SDS011;42964;42.910;23.792;2023-12-20T03:55:02;120.25;;;61.47;;
57085;SDS011;42964;42.910;23.792;2023-12-20T04:05:01;115.18;;;58.58;;
57085;SDS011;42964;42.910;23.792;2023-12-20T04:10:00;116.07;;;62.33;;
57085;SDS011;42964;42.910;23.792;2023-12-20T04:14:58;116.55;;;62.05;;
57085;SDS011;42964;42.910;23.792;2023-12-20T04:19:57;120.70;;;63.78;;
57085;SDS011;42964;42.910;23.792;2023-12-20T04:24:56;120.82;;;68.15;;
57085;SDS011;42964;42.910;23.792;2023-12-20T04:29:55;120.25;;;64.70;;
57085;SDS011;42964;42.910;23.792;2023-12-20T04:34:54;137.70;;;79.78;;
57085;SDS011;42964;42.910;23.792;2023-12-20T04:39:53;149.48;;;78.95;;
57085;SDS011;42964;42.910;23.792;2023-12-20T04:44:53;129.68;;;63.42;;
57085;SDS011;42964;42.910;23.792;2023-12-20T04:49:52;94.50;;;51.38;;
57085;SDS011;42964;42.910;23.792;2023-12-20T04:54:51;94.53;;;50.47;;
57085;SDS011;42964;42.910;23.792;2023-12-20T04:59:50;108.90;;;56.05;;
57085;SDS011;42964;42.910;23.792;2023-12-20T05:04:49;116.25;;;61.85;;
57085;SDS011;42964;42.910;23.792;2023-12-20T05:09:48;150.63;;;74.85;;
57085;SDS011;42964;42.910;23.792;2023-12-20T05:14:47;150.80;;;70.30;;
57085;SDS011;42964;42.910;23.792;2023-12-20T05:19:46;160.07;;;72.70;;
57085;SDS011;42964;42.910;23.792;2023-12-20T05:24:45;128.55;;;66.82;;
57085;SDS011;42964;42.910;23.792;2023-12-20T05:29:43;131.90;;;63.50;;
57085;SDS011;42964;42.910;23.792;2023-12-20T05:34:42;118.70;;;67.10;;
57085;SDS011;42964;42.910;23.792;2023-12-20T05:39:41;134.07;;;71.88;;
57085;SDS011;42964;42.910;23.792;2023-12-20T05:44:40;170.00;;;90.28;;
57085;SDS011;42964;42.910;23.792;2023-12-20T05:49:39;192.45;;;102.85;;
57085;SDS011;42964;42.910;23.792;2023-12-20T05:54:38;196.32;;;108.07;;
57085;SDS011;42964;42.910;23.792;2023-12-20T05:59:37;191.40;;;103.53;;
57085;SDS011;42964;42.910;23.792;2023-12-20T06:04:36;193.02;;;101.30;;
57085;SDS011;42964;42.910;23.792;2023-12-20T06:09:35;123.38;;;61.28;;
57085;SDS011;42964;42.910;23.792;2023-12-20T06:19:33;95.57;;;49.00;;
57085;SDS011;42964;42.910;23.792;2023-12-20T06:24:32;131.05;;;60.22;;
57085;SDS011;42964;42.910;23.792;2023-12-20T06:29:32;142.52;;;66.00;;
57085;SDS011;42964;42.910;23.792;2023-12-20T06:34:33;130.43;;;61.60;;
57085;SDS011;42964;42.910;23.792;2023-12-20T06:39:32;133.35;;;66.90;;
57085;SDS011;42964;42.910;23.792;2023-12-20T06:44:32;144.70;;;74.22;;
57085;SDS011;42964;42.910;23.792;2023-12-20T06:49:31;202.23;;;101.88;;
57085;SDS011;42964;42.910;23.792;2023-12-20T06:54:30;201.30;;;114.00;;
57085;SDS011;42964;42.910;23.792;2023-12-20T06:59:29;215.70;;;120.82;;
57085;SDS011;42964;42.910;23.792;2023-12-20T07:04:28;221.88;;;120.32;;
57085;SDS011;42964;42.910;23.792;2023-12-20T07:09:27;250.55;;;137.40;;
57085;SDS011;42964;42.910;23.792;2023-12-20T07:14:26;240.18;;;132.95;;
57085;SDS011;42964;42.910;23.792;2023-12-20T07:19:26;233.75;;;127.65;;
57085;SDS011;42964;42.910;23.792;2023-12-20T07:24:25;220.85;;;126.63;;
57085;SDS011;42964;42.910;23.792;2023-12-20T07:29:24;225.57;;;123.32;;
57085;SDS011;42964;42.910;23.792;2023-12-20T07:34:23;223.30;;;125.00;;
57085;SDS011;42964;42.910;23.792;2023-12-20T07:39:22;247.88;;;138.57;;
57085;SDS011;42964;42.910;23.792;2023-12-20T07:44:21;277.80;;;162.20;;
57085;SDS011;42964;42.910;23.792;2023-12-20T07:49:20;256.73;;;152.88;;
57085;SDS011;42964;42.910;23.792;2023-12-20T07:54:19;271.02;;;167.35;;
57085;SDS011;42964;42.910;23.792;2023-12-20T07:59:18;282.92;;;168.63;;
57085;SDS011;42964;42.910;23.792;2023-12-20T08:04:17;283.17;;;174.77;;
57085;SDS011;42964;42.910;23.792;2023-12-20T08:09:16;279.48;;;171.50;;
57085;SDS011;42964;42.910;23.792;2023-12-20T08:14:15;301.40;;;187.23;;
57085;SDS011;42964;42.910;23.792;2023-12-20T08:19:14;277.33;;;177.95;;
57085;SDS011;42964;42.910;23.792;2023-12-20T08:24:13;274.13;;;175.05;;
57085;SDS011;42964;42.910;23.792;2023-12-20T08:29:13;266.17;;;170.20;;
57085;SDS011;42964;42.910;23.792;2023-12-20T08:34:12;267.58;;;169.07;;
57085;SDS011;42964;42.910;23.792;2023-12-20T08:39:13;245.48;;;163.45;;
57085;SDS011;42964;42.910;23.792;2023-12-20T08:44:12;258.40;;;163.80;;
57085;SDS011;42964;42.910;23.792;2023-12-20T08:49:11;257.05;;;174.48;;
57085;SDS011;42964;42.910;23.792;2023-12-20T08:54:10;252.43;;;169.57;;
57085;SDS011;42964;42.910;23.792;2023-12-20T08:59:11;246.10;;;163.90;;
57085;SDS011;42964;42.910;23.792;2023-12-20T09:09:09;225.30;;;151.65;;
57085;SDS011;42964;42.910;23.792;2023-12-20T09:14:12;213.43;;;144.38;;
57085;SDS011;42964;42.910;23.792;2023-12-20T09:19:11;198.07;;;131.82;;
57085;SDS011;42964;42.910;23.792;2023-12-20T09:24:10;188.77;;;133.43;;
57085;SDS011;42964;42.910;23.792;2023-12-20T09:29:09;188.50;;;133.63;;
57085;SDS011;42964;42.910;23.792;2023-12-20T09:34:09;179.07;;;131.80;;
57085;SDS011;42964;42.910;23.792;2023-12-20T09:39:08;181.02;;;131.23;;
57085;SDS011;42964;42.910;23.792;2023-12-20T09:44:07;187.60;;;136.23;;
57085;SDS011;42964;42.910;23.792;2023-12-20T09:49:09;181.50;;;135.57;;
57085;SDS011;42964;42.910;23.792;2023-12-20T09:54:09;176.40;;;131.35;;
57085;SDS011;42964;42.910;23.792;2023-12-20T09:59:08;183.82;;;129.35;;
57085;SDS011;42964;42.910;23.792;2023-12-20T10:04:08;185.13;;;134.93;;
57085;SDS011;42964;42.910;23.792;2023-12-20T10:09:12;187.88;;;135.18;;
57085;SDS011;42964;42.910;23.792;2023-12-20T10:14:11;101.30;;;71.13;;
57085;SDS011;42964;42.910;23.792;2023-12-20T10:19:10;103.28;;;74.38;;
57085;SDS011;42964;42.910;23.792;2023-12-20T10:24:09;140.77;;;100.90;;
57085;SDS011;42964;42.910;23.792;2023-12-20T10:29:15;192.80;;;133.82;;
57085;SDS011;42964;42.910;23.792;2023-12-20T10:34:14;234.07;;;174.10;;
57085;SDS011;42964;42.910;23.792;2023-12-20T10:39:13;252.85;;;178.07;;
57085;SDS011;42964;42.910;23.792;2023-12-20T10:44:14;245.90;;;180.65;;
57085;SDS011;42964;42.910;23.792;2023-12-20T10:49:13;219.00;;;160.88;;
57085;SDS011;42964;42.910;23.792;2023-12-20T10:54:13;192.80;;;140.95;;
57085;SDS011;42964;42.910;23.792;2023-12-20T10:59:12;168.63;;;125.05;;
57085;SDS011;42964;42.910;23.792;2023-12-20T11:04:17;159.32;;;115.40;;
57085;SDS011;42964;42.910;23.792;2023-12-20T11:09:24;64.63;;;47.22;;
57085;SDS011;42964;42.910;23.792;2023-12-20T11:14:27;106.30;;;82.90;;
57085;SDS011;42964;42.910;23.792;2023-12-20T11:20:21;48.53;;;35.38;;
57085;SDS011;42964;42.910;23.792;2023-12-20T11:25:04;48.17;;;35.30;;
57085;SDS011;42964;42.910;23.792;2023-12-20T11:30:08;32.45;;;23.50;;
57085;SDS011;42964;42.910;23.792;2023-12-20T11:40:07;8.85;;;7.65;;
57085;SDS011;42964;42.910;23.792;2023-12-20T11:45:11;9.85;;;7.10;;
57085;SDS011;42964;42.910;23.792;2023-12-20T11:50:14;7.32;;;6.50;;
57085;SDS011;42964;42.910;23.792;2023-12-20T11:55:12;8.55;;;7.35;;
57085;SDS011;42964;42.910;23.792;2023-12-20T12:00:13;8.68;;;7.10;;
57085;SDS011;42964;42.910;23.792;2023-12-20T12:05:13;7.70;;;6.88;;
57085;SDS011;42964;42.910;23.792;2023-12-20T12:10:11;9.02;;;7.50;;
57085;SDS011;42964;42.910;23.792;2023-12-20T12:15:10;7.10;;;6.40;;
57085;SDS011;42964;42.910;23.792;2023-12-20T12:20:09;9.70;;;8.52;;
57085;SDS011;42964;42.910;23.792;2023-12-20T12:30:09;8.20;;;7.38;;
57085;SDS011;42964;42.910;23.792;2023-12-20T12:35:11;9.10;;;7.53;;
57085;SDS011;42964;42.910;23.792;2023-12-20T12:40:10;8.10;;;7.28;;
57085;SDS011;42964;42.910;23.792;2023-12-20T12:45:13;12.25;;;9.30;;
57085;SDS011;42964;42.910;23.792;2023-12-20T12:50:12;9.10;;;8.18;;
57085;SDS011;42964;42.910;23.792;2023-12-20T12:55:11;7.82;;;6.78;;
57085;SDS011;42964;42.910;23.792;2023-12-20T13:00:10;8.52;;;7.72;;
57085;SDS011;42964;42.910;23.792;2023-12-20T13:05:10;8.45;;;6.63;;
57085;SDS011;42964;42.910;23.792;2023-12-20T13:20:08;7.38;;;6.65;;
57085;SDS011;42964;42.910;23.792;2023-12-20T13:30:06;8.53;;;7.50;;
57085;SDS011;42964;42.910;23.792;2023-12-20T13:35:06;7.05;;;6.35;;
57085;SDS011;42964;42.910;23.792;2023-12-20T13:40:05;9.45;;;7.28;;
57085;SDS011;42964;42.910;23.792;2023-12-20T13:45:05;7.00;;;6.40;;
57085;SDS011;42964;42.910;23.792;2023-12-20T13:50:05;7.45;;;6.65;;
57085;SDS011;42964;42.910;23.792;2023-12-20T13:55:04;11.70;;;7.72;;
57085;SDS011;42964;42.910;23.792;2023-12-20T14:00:06;9.00;;;7.60;;
57085;SDS011;42964;42.910;23.792;2023-12-20T14:05:11;7.90;;;7.13;;
57085;SDS011;42964;42.910;23.792;2023-12-20T14:10:12;6.32;;;5.72;;
57085;SDS011;42964;42.910;23.792;2023-12-20T14:15:12;14.10;;;11.68;;
57085;SDS011;42964;42.910;23.792;2023-12-20T14:20:11;15.43;;;11.88;;
57085;SDS011;42964;42.910;23.792;2023-12-20T14:25:11;16.70;;;13.10;;
57085;SDS011;42964;42.910;23.792;2023-12-20T14:30:12;14.25;;;9.68;;
57085;SDS011;42964;42.910;23.792;2023-12-20T14:35:12;10.63;;;8.30;;
57085;SDS011;42964;42.910;23.792;2023-12-20T14:40:11;11.85;;;7.00;;
57085;SDS011;42964;42.910;23.792;2023-12-20T14:45:16;10.70;;;8.40;;
57085;SDS011;42964;42.910;23.792;2023-12-20T14:50:15;11.68;;;7.82;;
57085;SDS011;42964;42.910;23.792;2023-12-20T14:55:17;7.85;;;7.00;;
57085;SDS011;42964;42.910;23.792;2023-12-20T15:00:16;8.23;;;6.85;;
57085;SDS011;42964;42.910;23.792;2023-12-20T15:10:15;8.15;;;7.25;;
57085;SDS011;42964;42.910;23.792;2023-12-20T15:15:17;9.73;;;7.57;;
57085;SDS011;42964;42.910;23.792;2023-12-20T15:20:17;8.10;;;7.30;;
57085;SDS011;42964;42.910;23.792;2023-12-20T15:25:16;8.65;;;7.28;;
57085;SDS011;42964;42.910;23.792;2023-12-20T15:30:20;12.30;;;8.60;;
57085;SDS011;42964;42.910;23.792;2023-12-20T15:35:19;19.63;;;13.48;;
57085;SDS011;42964;42.910;23.792;2023-12-20T15:40:18;13.80;;;11.07;;
57085;SDS011;42964;42.910;23.792;2023-12-20T15:45:17;17.85;;;13.10;;
57085;SDS011;42964;42.910;23.792;2023-12-20T15:55:15;28.52;;;21.13;;
57085;SDS011;42964;42.910;23.792;2023-12-20T16:00:14;33.42;;;24.40;;
57085;SDS011;42964;42.910;23.792;2023-12-20T16:05:14;30.17;;;22.17;;
57085;SDS011;42964;42.910;23.792;2023-12-20T16:10:13;30.92;;;22.77;;
57085;SDS011;42964;42.910;23.792;2023-12-20T16:15:12;31.52;;;21.75;;
57085;SDS011;42964;42.910;23.792;2023-12-20T16:20:11;32.00;;;22.13;;
57085;SDS011;42964;42.910;23.792;2023-12-20T16:25:11;49.97;;;33.78;;
57085;SDS011;42964;42.910;23.792;2023-12-20T16:30:10;43.30;;;31.50;;
57085;SDS011;42964;42.910;23.792;2023-12-20T16:35:09;50.72;;;36.92;;
57085;SDS011;42964;42.910;23.792;2023-12-20T16:40:08;34.58;;;25.75;;
57085;SDS011;42964;42.910;23.792;2023-12-20T16:50:07;35.60;;;23.02;;
57085;SDS011;42964;42.910;23.792;2023-12-20T16:55:08;48.90;;;30.52;;
57085;SDS011;42964;42.910;23.792;2023-12-20T17:00:08;49.70;;;31.00;;
57085;SDS011;42964;42.910;23.792;2023-12-20T17:10:07;51.75;;;33.95;;
57085;SDS011;42964;42.910;23.792;2023-12-20T17:20:05;43.40;;;30.92;;
57085;SDS011;42964;42.910;23.792;2023-12-20T17:25:06;42.65;;;30.17;;
57085;SDS011;42964;42.910;23.792;2023-12-20T17:35:04;113.75;;;73.28;;
57085;SDS011;42964;42.910;23.792;2023-12-20T17:45:02;75.45;;;50.08;;
57085;SDS011;42964;42.910;23.792;2023-12-20T17:50:03;76.43;;;48.25;;
57085;SDS011;42964;42.910;23.792;2023-12-20T17:55:02;58.38;;;39.80;;
57085;SDS011;42964;42.910;23.792;2023-12-20T18:00:15;30.33;;;20.42;;
57085;SDS011;42964;42.910;23.792;2023-12-20T18:05:17;35.47;;;22.55;;
57085;SDS011;42964;42.910;23.792;2023-12-20T18:10:16;21.10;;;15.30;;
57085;SDS011;42964;42.910;23.792;2023-12-20T18:15:15;19.17;;;14.38;;
57085;SDS011;42964;42.910;23.792;2023-12-20T18:20:14;16.70;;;12.40;;
57085;SDS011;42964;42.910;23.792;2023-12-20T18:30:12;12.48;;;10.20;;
57085;SDS011;42964;42.910;23.792;2023-12-20T18:35:11;11.25;;;7.43;;
57085;SDS011;42964;42.910;23.792;2023-12-20T18:40:10;9.00;;;7.50;;
57085;SDS011;42964;42.910;23.792;2023-12-20T18:45:09;10.20;;;7.30;;
57085;SDS011;42964;42.910;23.792;2023-12-20T18:50:09;8.82;;;6.70;;
57085;SDS011;42964;42.910;23.792;2023-12-20T18:55:08;15.88;;;11.68;;
57085;SDS011;42964;42.910;23.792;2023-12-20T19:00:08;41.38;;;31.15;;
57085;SDS011;42964;42.910;23.792;2023-12-20T19:05:08;53.40;;;36.55;;
57085;SDS011;42964;42.910;23.792;2023-12-20T19:10:08;55.88;;;41.30;;
57085;SDS011;42964;42.910;23.792;2023-12-20T19:15:08;67.45;;;46.95;;
57085;SDS011;42964;42.910;23.792;2023-12-20T19:20:08;97.47;;;74.97;;
57085;SDS011;42964;42.910;23.792;2023-12-20T19:25:08;60.97;;;45.25;;
57085;SDS011;42964;42.910;23.792;2023-12-20T19:30:07;48.63;;;35.92;;
57085;SDS011;42964;42.910;23.792;2023-12-20T19:40:06;66.13;;;45.78;;
57085;SDS011;42964;42.910;23.792;2023-12-20T19:45:05;65.45;;;44.97;;
57085;SDS011;42964;42.910;23.792;2023-12-20T19:50:05;68.93;;;44.83;;
57085;SDS011;42964;42.910;23.792;2023-12-20T19:55:05;61.30;;;39.45;;
57085;SDS011;42964;42.910;23.792;2023-12-20T20:05:06;57.90;;;36.50;;
57085;SDS011;42964;42.910;23.792;2023-12-20T20:15:05;77.20;;;51.53;;
57085;SDS011;42964;42.910;23.792;2023-12-20T20:20:05;81.35;;;52.72;;
57085;SDS011;42964;42.910;23.792;2023-12-20T20:25:05;88.53;;;55.50;;
57085;SDS011;42964;42.910;23.792;2023-12-20T20:30:04;208.00;;;117.35;;
57085;SDS011;42964;42.910;23.792;2023-12-20T20:35:04;240.38;;;130.00;;
57085;SDS011;42964;42.910;23.792;2023-12-20T20:40:03;264.25;;;143.07;;
57085;SDS011;42964;42.910;23.792;2023-12-20T20:45:03;176.48;;;104.13;;
57085;SDS011;42964;42.910;23.792;2023-12-20T20:55:02;160.43;;;98.47;;
57085;SDS011;42964;42.910;23.792;2023-12-20T21:00:01;126.05;;;74.50;;
57085;SDS011;42964;42.910;23.792;2023-12-20T21:05:00;104.30;;;62.42;;
57085;SDS011;42964;42.910;23.792;2023-12-20T21:09:59;109.38;;;63.75;;
57085;SDS011;42964;42.910;23.792;2023-12-20T21:14:59;129.65;;;77.75;;
57085;SDS011;42964;42.910;23.792;2023-12-20T21:19:58;128.55;;;79.15;;
57085;SDS011;42964;42.910;23.792;2023-12-20T21:24:57;134.75;;;84.35;;
57085;SDS011;42964;42.910;23.792;2023-12-20T21:29:56;106.95;;;66.05;;
57085;SDS011;42964;42.910;23.792;2023-12-20T21:34:55;87.85;;;54.15;;
57085;SDS011;42964;42.910;23.792;2023-12-20T21:39:54;65.00;;;41.70;;
57085;SDS011;42964;42.910;23.792;2023-12-20T21:44:53;34.17;;;21.30;;
57085;SDS011;42964;42.910;23.792;2023-12-20T21:49:52;37.92;;;26.67;;
57085;SDS011;42964;42.910;23.792;2023-12-20T21:54:51;47.53;;;30.98;;
57085;SDS011;42964;42.910;23.792;2023-12-20T21:59:50;56.60;;;34.97;;
57085;SDS011;42964;42.910;23.792;2023-12-20T22:04:49;49.15;;;29.88;;
57085;SDS011;42964;42.910;23.792;2023-12-20T22:09:48;35.78;;;23.55;;
57085;SDS011;42964;42.910;23.792;2023-12-20T22:14:48;64.50;;;43.28;;
57085;SDS011;42964;42.910;23.792;2023-12-20T22:19:47;30.63;;;21.05;;
57085;SDS011;42964;42.910;23.792;2023-12-20T22:24:46;28.25;;;17.40;;
57085;SDS011;42964;42.910;23.792;2023-12-20T22:29:45;22.80;;;16.92;;
57085;SDS011;42964;42.910;23.792;2023-12-20T22:34:45;22.45;;;15.70;;
57085;SDS011;42964;42.910;23.792;2023-12-20T22:39:44;28.42;;;19.70;;
57085;SDS011;42964;42.910;23.792;2023-12-20T22:44:42;27.05;;;18.15;;
57085;SDS011;42964;42.910;23.792;2023-12-20T22:49:42;15.55;;;10.13;;
57085;SDS011;42964;42.910;23.792;2023-12-20T22:54:41;54.30;;;34.05;;
57085;SDS011;42964;42.910;23.792;2023-12-20T22:59:40;40.75;;;26.35;;
57085;SDS011;42964;42.910;23.792;2023-12-20T23:04:39;31.77;;;22.27;;
57085;SDS011;42964;42.910;23.792;2023-12-20T23:09:39;42.92;;;27.08;;
57085;SDS011;42964;42.910;23.792;2023-12-20T23:14:38;36.00;;;23.00;;
57085;SDS011;42964;42.910;23.792;2023-12-20T23:19:37;32.00;;;20.98;;
57085;SDS011;42964;42.910;23.792;2023-12-20T23:24:36;28.02;;;17.38;;
57085;SDS011;42964;42.910;23.792;2023-12-20T23:29:35;28.30;;;16.92;;
57085;SDS011;42964;42.910;23.792;2023-12-20T23:34:34;30.63;;;19.83;;
57085;SDS011;42964;42.910;23.792;2023-12-20T23:39:33;28.10;;;17.25;;
57085;SDS011;42964;42.910;23.792;2023-12-20T23:44:32;38.85;;;22.15;;
57085;SDS011;42964;42.910;23.792;2023-12-20T23:49:31;50.28;;;25.25;;
57085;SDS011;42964;42.910;23.792;2023-12-20T23:54:30;46.30;;;28.08;;
57085;SDS011;42964;42.910;23.792;2023-12-20T23:59:29;29.02;;;18.65;;
